Canefield Airport

Partly cloudy
29oC (84oF)

Partly cloudy


Winds: South easterly @ 04kts/ 07km/h

Humidity: 62%

Barometric Pressure: 1012 mb

Accumulated Rainfall for May: 17.9 mm

Updated: 18:00 local time (22:00 UTC)

Douglas-Charles Airport

Partly cloudy
25oC (77oF)

Partly cloudy


Winds: West north westerly @ 02kts / 04km/h

Humidity: 88%

Barometric Pressure: 1014 mb

Accumulated Rainfall for May: 51.2 mm

Updated: 20:00 local time (00:00 UTC)

Satellite Imagery

Satellite Imagery
Click image for larger view. (Source: National Hurricane Center).

Aviation Routine Report (METAR)

Douglas-Charles: METAR TDPD 270000Z 29002KT 9999 SCT018 25/23 Q1014=
Canefield: METAR TDCF 262200Z 14004KT 9999 FEW018 29/21 Q1012=